sensor_id;sensor_type;location;lat;lon;timestamp;temperature;humidity
17632;DHT22;8934;51.194;17.150;2022-09-25T00:00:46;6.00;99.90
17632;DHT22;8934;51.194;17.150;2022-09-25T00:03:34;6.00;99.90
17632;DHT22;8934;51.194;17.150;2022-09-25T00:06:23;6.10;99.90
17632;DHT22;8934;51.194;17.150;2022-09-25T00:09:12;6.10;99.90
17632;DHT22;8934;51.194;17.150;2022-09-25T00:12:00;6.20;99.90
17632;DHT22;8934;51.194;17.150;2022-09-25T00:14:48;6.20;99.90
17632;DHT22;8934;51.194;17.150;2022-09-25T00:17:38;6.20;99.90
17632;DHT22;8934;51.194;17.150;2022-09-25T00:20:26;6.30;99.90
17632;DHT22;8934;51.194;17.150;2022-09-25T00:23:13;6.20;99.90
17632;DHT22;8934;51.194;17.150;2022-09-25T00:26:01;6.20;99.90
17632;DHT22;8934;51.194;17.150;2022-09-25T00:28:49;6.20;99.90
17632;DHT22;8934;51.194;17.150;2022-09-25T00:31:38;6.20;99.90
17632;DHT22;8934;51.194;17.150;2022-09-25T00:34:28;6.20;99.90
17632;DHT22;8934;51.194;17.150;2022-09-25T00:37:16;6.20;99.90
17632;DHT22;8934;51.194;17.150;2022-09-25T00:40:04;6.20;99.90
17632;DHT22;8934;51.194;17.150;2022-09-25T00:42:52;6.20;99.90
17632;DHT22;8934;51.194;17.150;2022-09-25T00:45:41;6.20;99.90
17632;DHT22;8934;51.194;17.150;2022-09-25T00:48:30;6.10;99.90
17632;DHT22;8934;51.194;17.150;2022-09-25T00:51:22;6.10;99.90
17632;DHT22;8934;51.194;17.150;2022-09-25T00:54:18;6.00;99.90
17632;DHT22;8934;51.194;17.150;2022-09-25T00:57:11;6.00;99.90
17632;DHT22;8934;51.194;17.150;2022-09-25T01:00:03;6.00;99.90
17632;DHT22;8934;51.194;17.150;2022-09-25T01:02:53;5.90;99.90
17632;DHT22;8934;51.194;17.150;2022-09-25T01:05:43;5.90;99.90
17632;DHT22;8934;51.194;17.150;2022-09-25T01:08:33;5.90;99.90
17632;DHT22;8934;51.194;17.150;2022-09-25T01:11:21;5.80;99.90
17632;DHT22;8934;51.194;17.150;2022-09-25T01:14:09;5.80;99.90
17632;DHT22;8934;51.194;17.150;2022-09-25T01:17:05;5.80;99.90
17632;DHT22;8934;51.194;17.150;2022-09-25T01:20:02;5.80;99.90
17632;DHT22;8934;51.194;17.150;2022-09-25T01:23:06;5.70;99.90
17632;DHT22;8934;51.194;17.150;2022-09-25T01:26:17;5.70;99.90
17632;DHT22;8934;51.194;17.150;2022-09-25T01:29:10;5.70;99.90
17632;DHT22;8934;51.194;17.150;2022-09-25T01:32:03;5.70;99.90
17632;DHT22;8934;51.194;17.150;2022-09-25T01:34:57;5.70;99.90
17632;DHT22;8934;51.194;17.150;2022-09-25T01:37:53;5.70;99.90
17632;DHT22;8934;51.194;17.150;2022-09-25T01:40:48;5.70;99.90
17632;DHT22;8934;51.194;17.150;2022-09-25T01:43:42;5.70;99.90
17632;DHT22;8934;51.194;17.150;2022-09-25T01:46:36;5.70;99.90
17632;DHT22;8934;51.194;17.150;2022-09-25T01:49:30;5.70;99.90
17632;DHT22;8934;51.194;17.150;2022-09-25T01:52:21;5.60;99.90
17632;DHT22;8934;51.194;17.150;2022-09-25T01:55:14;5.70;99.90
17632;DHT22;8934;51.194;17.150;2022-09-25T01:58:07;5.60;99.90
17632;DHT22;8934;51.194;17.150;2022-09-25T02:01:00;5.60;99.90
17632;DHT22;8934;51.194;17.150;2022-09-25T02:03:54;5.60;99.90
17632;DHT22;8934;51.194;17.150;2022-09-25T02:06:46;5.60;99.90
17632;DHT22;8934;51.194;17.150;2022-09-25T02:09:39;5.60;99.90
17632;DHT22;8934;51.194;17.150;2022-09-25T02:12:31;5.60;99.90
17632;DHT22;8934;51.194;17.150;2022-09-25T02:15:25;5.60;99.90
17632;DHT22;8934;51.194;17.150;2022-09-25T02:18:17;5.60;99.90
17632;DHT22;8934;51.194;17.150;2022-09-25T02:21:31;5.50;99.90
17632;DHT22;8934;51.194;17.150;2022-09-25T02:24:27;5.50;99.90
17632;DHT22;8934;51.194;17.150;2022-09-25T02:27:16;5.50;99.90
17632;DHT22;8934;51.194;17.150;2022-09-25T02:30:06;5.40;99.90
17632;DHT22;8934;51.194;17.150;2022-09-25T02:32:53;5.40;99.90
17632;DHT22;8934;51.194;17.150;2022-09-25T02:35:43;5.40;99.90
17632;DHT22;8934;51.194;17.150;2022-09-25T02:38:35;5.40;99.90
17632;DHT22;8934;51.194;17.150;2022-09-25T02:41:32;5.40;99.90
17632;DHT22;8934;51.194;17.150;2022-09-25T02:44:32;5.40;99.90
17632;DHT22;8934;51.194;17.150;2022-09-25T02:47:27;5.30;99.90
17632;DHT22;8934;51.194;17.150;2022-09-25T02:50:23;5.30;99.90
17632;DHT22;8934;51.194;17.150;2022-09-25T02:53:15;5.30;99.90
17632;DHT22;8934;51.194;17.150;2022-09-25T02:56:10;5.30;99.90
17632;DHT22;8934;51.194;17.150;2022-09-25T02:59:02;5.30;99.90
17632;DHT22;8934;51.194;17.150;2022-09-25T03:01:54;5.20;99.90
17632;DHT22;8934;51.194;17.150;2022-09-25T03:04:45;5.20;99.90
17632;DHT22;8934;51.194;17.150;2022-09-25T03:07:34;5.20;99.90
17632;DHT22;8934;51.194;17.150;2022-09-25T03:10:43;5.20;99.90
17632;DHT22;8934;51.194;17.150;2022-09-25T03:13:33;5.20;99.90
17632;DHT22;8934;51.194;17.150;2022-09-25T03:16:30;5.20;99.90
17632;DHT22;8934;51.194;17.150;2022-09-25T03:19:19;5.20;99.90
17632;DHT22;8934;51.194;17.150;2022-09-25T03:22:07;5.10;99.90
17632;DHT22;8934;51.194;17.150;2022-09-25T03:24:55;5.10;99.90
17632;DHT22;8934;51.194;17.150;2022-09-25T03:27:43;5.10;99.90
17632;DHT22;8934;51.194;17.150;2022-09-25T03:30:34;5.10;99.90
17632;DHT22;8934;51.194;17.150;2022-09-25T03:33:24;5.10;99.90
17632;DHT22;8934;51.194;17.150;2022-09-25T03:36:14;5.00;99.90
17632;DHT22;8934;51.194;17.150;2022-09-25T03:39:04;5.00;99.90
17632;DHT22;8934;51.194;17.150;2022-09-25T03:41:52;5.00;99.90
17632;DHT22;8934;51.194;17.150;2022-09-25T03:44:40;5.10;99.90
17632;DHT22;8934;51.194;17.150;2022-09-25T03:47:29;5.20;99.90
17632;DHT22;8934;51.194;17.150;2022-09-25T03:50:17;5.20;99.90
17632;DHT22;8934;51.194;17.150;2022-09-25T03:53:05;5.20;99.90
17632;DHT22;8934;51.194;17.150;2022-09-25T03:55:53;5.30;99.90
17632;DHT22;8934;51.194;17.150;2022-09-25T03:58:40;5.30;99.90
17632;DHT22;8934;51.194;17.150;2022-09-25T04:01:28;5.30;99.90
17632;DHT22;8934;51.194;17.150;2022-09-25T04:04:18;5.30;99.90
17632;DHT22;8934;51.194;17.150;2022-09-25T04:07:06;5.30;99.90
17632;DHT22;8934;51.194;17.150;2022-09-25T04:09:54;5.30;99.90
17632;DHT22;8934;51.194;17.150;2022-09-25T04:12:42;5.30;99.90
17632;DHT22;8934;51.194;17.150;2022-09-25T04:15:30;5.20;99.90
17632;DHT22;8934;51.194;17.150;2022-09-25T04:18:18;5.20;99.90
17632;DHT22;8934;51.194;17.150;2022-09-25T04:21:10;5.20;99.90
17632;DHT22;8934;51.194;17.150;2022-09-25T04:23:58;5.10;99.90
17632;DHT22;8934;51.194;17.150;2022-09-25T04:27:03;5.10;99.90
17632;DHT22;8934;51.194;17.150;2022-09-25T04:29:51;5.10;99.90
17632;DHT22;8934;51.194;17.150;2022-09-25T04:32:38;5.00;99.90
17632;DHT22;8934;51.194;17.150;2022-09-25T04:35:43;5.00;99.90
17632;DHT22;8934;51.194;17.150;2022-09-25T04:38:33;5.00;99.90
17632;DHT22;8934;51.194;17.150;2022-09-25T04:41:21;5.00;99.90
17632;DHT22;8934;51.194;17.150;2022-09-25T04:44:09;4.90;99.90
17632;DHT22;8934;51.194;17.150;2022-09-25T04:46:57;4.90;99.90
17632;DHT22;8934;51.194;17.150;2022-09-25T04:49:45;4.90;99.90
17632;DHT22;8934;51.194;17.150;2022-09-25T04:52:33;4.90;99.90
17632;DHT22;8934;51.194;17.150;2022-09-25T04:55:22;4.90;99.90
17632;DHT22;8934;51.194;17.150;2022-09-25T04:58:12;4.90;99.90
17632;DHT22;8934;51.194;17.150;2022-09-25T05:01:01;4.90;99.90
17632;DHT22;8934;51.194;17.150;2022-09-25T05:03:50;4.90;99.90
17632;DHT22;8934;51.194;17.150;2022-09-25T05:06:39;4.90;99.90
17632;DHT22;8934;51.194;17.150;2022-09-25T05:09:27;4.90;99.90
17632;DHT22;8934;51.194;17.150;2022-09-25T05:12:16;4.90;99.90
17632;DHT22;8934;51.194;17.150;2022-09-25T05:15:05;5.00;99.90
17632;DHT22;8934;51.194;17.150;2022-09-25T05:17:58;5.10;99.90
17632;DHT22;8934;51.194;17.150;2022-09-25T05:20:47;5.20;99.90
17632;DHT22;8934;51.194;17.150;2022-09-25T05:23:35;5.20;99.90
17632;DHT22;8934;51.194;17.150;2022-09-25T05:26:22;5.30;99.90
17632;DHT22;8934;51.194;17.150;2022-09-25T05:29:12;5.40;99.90
17632;DHT22;8934;51.194;17.150;2022-09-25T05:32:00;5.50;99.90
17632;DHT22;8934;51.194;17.150;2022-09-25T05:34:48;5.60;99.90
17632;DHT22;8934;51.194;17.150;2022-09-25T05:37:36;5.70;99.90
17632;DHT22;8934;51.194;17.150;2022-09-25T05:40:24;5.80;99.90
17632;DHT22;8934;51.194;17.150;2022-09-25T05:43:12;5.90;99.90
17632;DHT22;8934;51.194;17.150;2022-09-25T05:46:02;6.00;99.90
17632;DHT22;8934;51.194;17.150;2022-09-25T05:48:49;6.10;99.90
17632;DHT22;8934;51.194;17.150;2022-09-25T05:51:37;6.20;99.90
17632;DHT22;8934;51.194;17.150;2022-09-25T05:54:25;6.40;99.90
17632;DHT22;8934;51.194;17.150;2022-09-25T05:57:13;6.50;99.90
17632;DHT22;8934;51.194;17.150;2022-09-25T06:00:01;6.80;99.90
17632;DHT22;8934;51.194;17.150;2022-09-25T06:02:58;7.00;99.90
17632;DHT22;8934;51.194;17.150;2022-09-25T06:05:47;7.10;99.90
17632;DHT22;8934;51.194;17.150;2022-09-25T06:08:35;7.30;99.90
17632;DHT22;8934;51.194;17.150;2022-09-25T06:11:22;7.40;99.90
17632;DHT22;8934;51.194;17.150;2022-09-25T06:14:12;7.50;99.90
17632;DHT22;8934;51.194;17.150;2022-09-25T06:17:00;7.60;99.90
17632;DHT22;8934;51.194;17.150;2022-09-25T06:19:48;7.70;99.90
17632;DHT22;8934;51.194;17.150;2022-09-25T06:22:36;7.80;99.90
17632;DHT22;8934;51.194;17.150;2022-09-25T06:25:26;7.90;99.90
17632;DHT22;8934;51.194;17.150;2022-09-25T06:28:14;8.00;99.90
17632;DHT22;8934;51.194;17.150;2022-09-25T06:31:03;8.10;99.90
17632;DHT22;8934;51.194;17.150;2022-09-25T06:33:51;8.30;99.90
17632;DHT22;8934;51.194;17.150;2022-09-25T06:36:40;8.40;99.90
17632;DHT22;8934;51.194;17.150;2022-09-25T06:39:28;8.60;99.90
17632;DHT22;8934;51.194;17.150;2022-09-25T06:42:18;8.70;99.90
17632;DHT22;8934;51.194;17.150;2022-09-25T06:45:07;8.90;99.90
17632;DHT22;8934;51.194;17.150;2022-09-25T06:47:59;9.10;99.90
17632;DHT22;8934;51.194;17.150;2022-09-25T06:50:49;9.20;99.90
17632;DHT22;8934;51.194;17.150;2022-09-25T06:53:39;9.20;99.90
17632;DHT22;8934;51.194;17.150;2022-09-25T06:56:27;9.30;99.90
17632;DHT22;8934;51.194;17.150;2022-09-25T06:59:15;9.40;99.90
17632;DHT22;8934;51.194;17.150;2022-09-25T07:02:03;9.50;99.90
17632;DHT22;8934;51.194;17.150;2022-09-25T07:05:12;9.70;99.90
17632;DHT22;8934;51.194;17.150;2022-09-25T07:08:01;9.80;99.90
17632;DHT22;8934;51.194;17.150;2022-09-25T07:10:51;9.90;99.90
17632;DHT22;8934;51.194;17.150;2022-09-25T07:13:40;10.10;99.90
17632;DHT22;8934;51.194;17.150;2022-09-25T07:16:29;10.20;99.90
17632;DHT22;8934;51.194;17.150;2022-09-25T07:19:18;10.30;99.90
17632;DHT22;8934;51.194;17.150;2022-09-25T07:22:12;10.50;99.90
17632;DHT22;8934;51.194;17.150;2022-09-25T07:25:00;10.70;99.90
17632;DHT22;8934;51.194;17.150;2022-09-25T07:27:50;10.80;99.90
17632;DHT22;8934;51.194;17.150;2022-09-25T07:30:38;11.00;99.90
17632;DHT22;8934;51.194;17.150;2022-09-25T07:33:26;11.10;99.90
17632;DHT22;8934;51.194;17.150;2022-09-25T07:36:15;11.30;99.90
17632;DHT22;8934;51.194;17.150;2022-09-25T07:39:04;11.50;99.90
17632;DHT22;8934;51.194;17.150;2022-09-25T07:41:53;11.70;99.90
17632;DHT22;8934;51.194;17.150;2022-09-25T07:44:42;11.90;99.90
17632;DHT22;8934;51.194;17.150;2022-09-25T07:47:33;12.10;99.90
17632;DHT22;8934;51.194;17.150;2022-09-25T07:50:21;12.20;99.90
17632;DHT22;8934;51.194;17.150;2022-09-25T07:53:09;12.50;99.90
17632;DHT22;8934;51.194;17.150;2022-09-25T07:55:58;12.60;99.90
17632;DHT22;8934;51.194;17.150;2022-09-25T07:58:52;12.90;99.90
17632;DHT22;8934;51.194;17.150;2022-09-25T08:01:41;13.10;99.90
17632;DHT22;8934;51.194;17.150;2022-09-25T08:04:35;13.40;99.90
17632;DHT22;8934;51.194;17.150;2022-09-25T08:07:22;13.60;99.90
17632;DHT22;8934;51.194;17.150;2022-09-25T08:10:10;13.90;99.90
17632;DHT22;8934;51.194;17.150;2022-09-25T08:12:58;14.10;99.90
17632;DHT22;8934;51.194;17.150;2022-09-25T08:15:47;14.30;99.90
17632;DHT22;8934;51.194;17.150;2022-09-25T08:18:36;14.40;99.90
17632;DHT22;8934;51.194;17.150;2022-09-25T08:21:27;14.50;99.90
17632;DHT22;8934;51.194;17.150;2022-09-25T08:24:14;14.50;99.90
17632;DHT22;8934;51.194;17.150;2022-09-25T08:27:03;14.60;99.90
17632;DHT22;8934;51.194;17.150;2022-09-25T08:29:53;14.70;99.90
17632;DHT22;8934;51.194;17.150;2022-09-25T08:32:40;14.90;99.90
17632;DHT22;8934;51.194;17.150;2022-09-25T08:35:29;15.10;99.90
17632;DHT22;8934;51.194;17.150;2022-09-25T08:38:17;15.40;99.90
17632;DHT22;8934;51.194;17.150;2022-09-25T08:41:08;15.60;99.90
17632;DHT22;8934;51.194;17.150;2022-09-25T08:43:59;15.80;99.90
17632;DHT22;8934;51.194;17.150;2022-09-25T08:46:53;16.00;99.90
17632;DHT22;8934;51.194;17.150;2022-09-25T08:50:07;16.20;99.90
17632;DHT22;8934;51.194;17.150;2022-09-25T08:53:03;16.40;99.90
17632;DHT22;8934;51.194;17.150;2022-09-25T08:55:52;16.50;99.90
17632;DHT22;8934;51.194;17.150;2022-09-25T08:59:02;16.70;99.90
17632;DHT22;8934;51.194;17.150;2022-09-25T09:01:54;16.90;99.90
17632;DHT22;8934;51.194;17.150;2022-09-25T09:04:45;17.00;99.90
17632;DHT22;8934;51.194;17.150;2022-09-25T09:07:37;17.20;99.90
17632;DHT22;8934;51.194;17.150;2022-09-25T09:10:33;17.40;99.90
17632;DHT22;8934;51.194;17.150;2022-09-25T09:13:26;17.60;99.90
17632;DHT22;8934;51.194;17.150;2022-09-25T09:16:22;17.70;99.90
17632;DHT22;8934;51.194;17.150;2022-09-25T09:19:15;17.90;99.90
17632;DHT22;8934;51.194;17.150;2022-09-25T09:22:08;18.10;99.90
17632;DHT22;8934;51.194;17.150;2022-09-25T09:25:02;18.20;99.90
17632;DHT22;8934;51.194;17.150;2022-09-25T09:28:11;18.40;99.90
17632;DHT22;8934;51.194;17.150;2022-09-25T09:31:11;18.50;99.90
17632;DHT22;8934;51.194;17.150;2022-09-25T09:34:16;18.60;99.90
17632;DHT22;8934;51.194;17.150;2022-09-25T09:37:35;18.60;99.90
17632;DHT22;8934;51.194;17.150;2022-09-25T09:40:35;18.90;99.90
17632;DHT22;8934;51.194;17.150;2022-09-25T09:43:36;19.10;99.90
17632;DHT22;8934;51.194;17.150;2022-09-25T09:46:34;19.40;99.90
17632;DHT22;8934;51.194;17.150;2022-09-25T09:49:30;19.60;99.90
17632;DHT22;8934;51.194;17.150;2022-09-25T09:52:23;19.80;99.90
17632;DHT22;8934;51.194;17.150;2022-09-25T09:55:20;20.00;99.90
17632;DHT22;8934;51.194;17.150;2022-09-25T09:58:15;19.90;99.90
17632;DHT22;8934;51.194;17.150;2022-09-25T10:01:07;20.00;99.90
17632;DHT22;8934;51.194;17.150;2022-09-25T10:04:18;20.20;99.90
17632;DHT22;8934;51.194;17.150;2022-09-25T10:07:11;20.30;99.90
17632;DHT22;8934;51.194;17.150;2022-09-25T10:10:10;20.40;99.90
17632;DHT22;8934;51.194;17.150;2022-09-25T10:12:59;20.50;99.90
17632;DHT22;8934;51.194;17.150;2022-09-25T10:15:54;20.50;99.90
17632;DHT22;8934;51.194;17.150;2022-09-25T10:19:02;20.70;99.90
17632;DHT22;8934;51.194;17.150;2022-09-25T10:21:56;20.90;99.90
17632;DHT22;8934;51.194;17.150;2022-09-25T10:24:47;21.10;99.90
17632;DHT22;8934;51.194;17.150;2022-09-25T10:27:38;21.20;99.90
17632;DHT22;8934;51.194;17.150;2022-09-25T10:30:27;21.20;99.90
17632;DHT22;8934;51.194;17.150;2022-09-25T10:33:18;21.30;99.90
17632;DHT22;8934;51.194;17.150;2022-09-25T10:36:08;21.30;99.90
17632;DHT22;8934;51.194;17.150;2022-09-25T10:38:56;21.50;99.90
17632;DHT22;8934;51.194;17.150;2022-09-25T10:42:33;21.80;99.90
17632;DHT22;8934;51.194;17.150;2022-09-25T10:45:29;21.80;99.90
17632;DHT22;8934;51.194;17.150;2022-09-25T10:48:28;21.90;99.90
17632;DHT22;8934;51.194;17.150;2022-09-25T10:51:35;21.90;99.90
17632;DHT22;8934;51.194;17.150;2022-09-25T10:54:23;22.00;99.90
17632;DHT22;8934;51.194;17.150;2022-09-25T10:57:16;22.10;99.90
17632;DHT22;8934;51.194;17.150;2022-09-25T11:00:19;22.10;99.90
17632;DHT22;8934;51.194;17.150;2022-09-25T11:03:15;22.10;99.90
17632;DHT22;8934;51.194;17.150;2022-09-25T11:06:09;22.00;99.90
17632;DHT22;8934;51.194;17.150;2022-09-25T11:09:10;22.00;99.90
17632;DHT22;8934;51.194;17.150;2022-09-25T11:12:06;22.00;99.90
17632;DHT22;8934;51.194;17.150;2022-09-25T11:14:56;22.20;99.90
17632;DHT22;8934;51.194;17.150;2022-09-25T11:17:46;22.40;99.90
17632;DHT22;8934;51.194;17.150;2022-09-25T11:20:36;22.60;99.90
17632;DHT22;8934;51.194;17.150;2022-09-25T11:23:28;22.90;99.90
17632;DHT22;8934;51.194;17.150;2022-09-25T11:26:25;23.00;99.90
17632;DHT22;8934;51.194;17.150;2022-09-25T11:29:20;22.80;99.90
17632;DHT22;8934;51.194;17.150;2022-09-25T11:32:16;22.80;99.90
17632;DHT22;8934;51.194;17.150;2022-09-25T11:35:19;23.10;99.90
17632;DHT22;8934;51.194;17.150;2022-09-25T11:38:16;23.40;99.90
17632;DHT22;8934;51.194;17.150;2022-09-25T11:41:30;23.60;99.90
17632;DHT22;8934;51.194;17.150;2022-09-25T11:44:24;23.50;99.90
17632;DHT22;8934;51.194;17.150;2022-09-25T11:47:20;23.60;99.90
17632;DHT22;8934;51.194;17.150;2022-09-25T11:50:13;23.30;99.90
17632;DHT22;8934;51.194;17.150;2022-09-25T11:53:11;22.80;99.90
17632;DHT22;8934;51.194;17.150;2022-09-25T11:56:15;22.50;99.90
17632;DHT22;8934;51.194;17.150;2022-09-25T11:59:22;22.60;99.90
17632;DHT22;8934;51.194;17.150;2022-09-25T12:02:26;22.90;99.90
17632;DHT22;8934;51.194;17.150;2022-09-25T12:05:28;23.00;99.90
17632;DHT22;8934;51.194;17.150;2022-09-25T12:08:30;23.20;99.90
17632;DHT22;8934;51.194;17.150;2022-09-25T12:11:24;23.60;99.90
17632;DHT22;8934;51.194;17.150;2022-09-25T12:14:19;23.40;99.90
17632;DHT22;8934;51.194;17.150;2022-09-25T12:17:17;23.40;99.90
17632;DHT22;8934;51.194;17.150;2022-09-25T12:20:16;23.30;99.90
17632;DHT22;8934;51.194;17.150;2022-09-25T12:23:14;23.20;99.90
17632;DHT22;8934;51.194;17.150;2022-09-25T12:26:12;23.30;99.90
17632;DHT22;8934;51.194;17.150;2022-09-25T12:29:12;23.40;99.90
17632;DHT22;8934;51.194;17.150;2022-09-25T12:32:11;23.40;99.90
17632;DHT22;8934;51.194;17.150;2022-09-25T12:35:18;23.60;99.90
17632;DHT22;8934;51.194;17.150;2022-09-25T12:38:13;23.70;99.90
17632;DHT22;8934;51.194;17.150;2022-09-25T12:41:08;23.50;99.90
17632;DHT22;8934;51.194;17.150;2022-09-25T12:44:00;23.50;99.90
17632;DHT22;8934;51.194;17.150;2022-09-25T12:46:53;23.60;99.90
17632;DHT22;8934;51.194;17.150;2022-09-25T12:49:46;23.50;99.90
17632;DHT22;8934;51.194;17.150;2022-09-25T12:52:40;23.70;99.90
17632;DHT22;8934;51.194;17.150;2022-09-25T12:55:36;23.80;99.90
17632;DHT22;8934;51.194;17.150;2022-09-25T12:58:35;23.80;99.90
17632;DHT22;8934;51.194;17.150;2022-09-25T13:01:30;23.80;99.60
17632;DHT22;8934;51.194;17.150;2022-09-25T13:04:38;23.60;99.90
17632;DHT22;8934;51.194;17.150;2022-09-25T13:07:47;23.70;99.90
17632;DHT22;8934;51.194;17.150;2022-09-25T13:10:38;23.70;99.90
17632;DHT22;8934;51.194;17.150;2022-09-25T13:13:28;23.90;99.90
17632;DHT22;8934;51.194;17.150;2022-09-25T13:16:16;24.10;99.90
17632;DHT22;8934;51.194;17.150;2022-09-25T13:19:22;24.30;96.50
17632;DHT22;8934;51.194;17.150;2022-09-25T13:22:12;24.20;96.10
17632;DHT22;8934;51.194;17.150;2022-09-25T13:25:12;24.10;97.30
17632;DHT22;8934;51.194;17.150;2022-09-25T13:28:05;23.90;98.50
17632;DHT22;8934;51.194;17.150;2022-09-25T13:31:02;23.70;98.40
17632;DHT22;8934;51.194;17.150;2022-09-25T13:34:02;23.60;99.90
17632;DHT22;8934;51.194;17.150;2022-09-25T13:36:52;23.50;99.90
17632;DHT22;8934;51.194;17.150;2022-09-25T13:39:44;23.50;98.30
17632;DHT22;8934;51.194;17.150;2022-09-25T13:42:52;23.50;97.90
17632;DHT22;8934;51.194;17.150;2022-09-25T13:45:41;23.50;98.80
17632;DHT22;8934;51.194;17.150;2022-09-25T13:48:33;23.60;99.20
17632;DHT22;8934;51.194;17.150;2022-09-25T13:51:33;23.70;98.00
17632;DHT22;8934;51.194;17.150;2022-09-25T13:54:25;23.60;97.00
17632;DHT22;8934;51.194;17.150;2022-09-25T13:57:14;23.40;97.80
17632;DHT22;8934;51.194;17.150;2022-09-25T14:00:03;23.30;99.90
17632;DHT22;8934;51.194;17.150;2022-09-25T14:02:53;23.50;99.20
17632;DHT22;8934;51.194;17.150;2022-09-25T14:05:46;23.70;99.50
17632;DHT22;8934;51.194;17.150;2022-09-25T14:08:38;23.80;97.80
17632;DHT22;8934;51.194;17.150;2022-09-25T14:11:29;23.90;99.00
17632;DHT22;8934;51.194;17.150;2022-09-25T14:14:23;24.00;98.20
17632;DHT22;8934;51.194;17.150;2022-09-25T14:17:15;24.00;97.70
17632;DHT22;8934;51.194;17.150;2022-09-25T14:20:05;23.90;95.70
17632;DHT22;8934;51.194;17.150;2022-09-25T14:22:59;23.70;98.40
17632;DHT22;8934;51.194;17.150;2022-09-25T14:25:56;23.80;98.50
17632;DHT22;8934;51.194;17.150;2022-09-25T14:28:45;23.70;98.40
17632;DHT22;8934;51.194;17.150;2022-09-25T14:31:42;23.50;98.10
17632;DHT22;8934;51.194;17.150;2022-09-25T14:34:46;23.00;99.20
17632;DHT22;8934;51.194;17.150;2022-09-25T14:37:49;22.70;99.80
17632;DHT22;8934;51.194;17.150;2022-09-25T14:40:53;22.40;99.90
17632;DHT22;8934;51.194;17.150;2022-09-25T14:43:57;22.10;99.90
17632;DHT22;8934;51.194;17.150;2022-09-25T14:46:49;21.90;99.90
17632;DHT22;8934;51.194;17.150;2022-09-25T14:49:40;21.70;99.90
17632;DHT22;8934;51.194;17.150;2022-09-25T14:52:32;21.40;99.90
17632;DHT22;8934;51.194;17.150;2022-09-25T14:55:21;21.20;99.90
17632;DHT22;8934;51.194;17.150;2022-09-25T14:58:12;21.00;99.90
17632;DHT22;8934;51.194;17.150;2022-09-25T15:01:09;20.80;99.90
17632;DHT22;8934;51.194;17.150;2022-09-25T15:04:01;20.60;99.90
17632;DHT22;8934;51.194;17.150;2022-09-25T15:07:00;20.50;99.90
17632;DHT22;8934;51.194;17.150;2022-09-25T15:09:50;20.40;99.90
17632;DHT22;8934;51.194;17.150;2022-09-25T15:12:43;20.30;99.90
17632;DHT22;8934;51.194;17.150;2022-09-25T15:15:32;20.20;99.90
17632;DHT22;8934;51.194;17.150;2022-09-25T15:18:19;20.10;99.90
17632;DHT22;8934;51.194;17.150;2022-09-25T15:21:07;20.00;99.90
17632;DHT22;8934;51.194;17.150;2022-09-25T15:24:02;19.80;99.90
17632;DHT22;8934;51.194;17.150;2022-09-25T15:26:54;19.60;99.90
17632;DHT22;8934;51.194;17.150;2022-09-25T15:29:48;19.40;99.90
17632;DHT22;8934;51.194;17.150;2022-09-25T15:32:38;19.30;99.90
17632;DHT22;8934;51.194;17.150;2022-09-25T15:35:28;19.10;99.90
17632;DHT22;8934;51.194;17.150;2022-09-25T15:38:16;19.00;99.90
17632;DHT22;8934;51.194;17.150;2022-09-25T15:41:20;18.90;99.90
17632;DHT22;8934;51.194;17.150;2022-09-25T15:44:16;18.90;99.90
17632;DHT22;8934;51.194;17.150;2022-09-25T15:47:05;18.80;99.90
17632;DHT22;8934;51.194;17.150;2022-09-25T15:49:53;18.70;99.90
17632;DHT22;8934;51.194;17.150;2022-09-25T15:52:41;18.50;99.90
17632;DHT22;8934;51.194;17.150;2022-09-25T15:55:30;18.40;99.90
17632;DHT22;8934;51.194;17.150;2022-09-25T15:58:20;18.20;99.90
17632;DHT22;8934;51.194;17.150;2022-09-25T16:01:11;18.10;99.90
17632;DHT22;8934;51.194;17.150;2022-09-25T16:04:19;17.90;99.90
17632;DHT22;8934;51.194;17.150;2022-09-25T16:07:28;17.80;99.90
17632;DHT22;8934;51.194;17.150;2022-09-25T16:10:30;17.60;99.90
17632;DHT22;8934;51.194;17.150;2022-09-25T16:13:22;17.50;99.90
17632;DHT22;8934;51.194;17.150;2022-09-25T16:16:22;17.40;99.90
17632;DHT22;8934;51.194;17.150;2022-09-25T16:19:39;17.20;99.90
17632;DHT22;8934;51.194;17.150;2022-09-25T16:22:30;17.00;99.90
17632;DHT22;8934;51.194;17.150;2022-09-25T16:25:23;16.90;99.90
17632;DHT22;8934;51.194;17.150;2022-09-25T16:28:17;16.70;99.90
17632;DHT22;8934;51.194;17.150;2022-09-25T16:31:07;16.60;99.90
17632;DHT22;8934;51.194;17.150;2022-09-25T16:33:56;16.50;99.90
17632;DHT22;8934;51.194;17.150;2022-09-25T16:36:46;16.40;99.90
17632;DHT22;8934;51.194;17.150;2022-09-25T16:39:37;16.30;99.90
17632;DHT22;8934;51.194;17.150;2022-09-25T16:42:30;16.20;99.90
17632;DHT22;8934;51.194;17.150;2022-09-25T16:45:26;16.10;99.90
17632;DHT22;8934;51.194;17.150;2022-09-25T16:48:28;16.00;99.90
17632;DHT22;8934;51.194;17.150;2022-09-25T16:51:20;15.90;99.90
17632;DHT22;8934;51.194;17.150;2022-09-25T16:54:09;15.70;99.90
17632;DHT22;8934;51.194;17.150;2022-09-25T16:56:58;15.60;99.90
17632;DHT22;8934;51.194;17.150;2022-09-25T16:59:47;15.50;99.90
17632;DHT22;8934;51.194;17.150;2022-09-25T17:02:37;15.40;99.90
17632;DHT22;8934;51.194;17.150;2022-09-25T17:05:30;15.30;99.90
17632;DHT22;8934;51.194;17.150;2022-09-25T17:08:19;15.10;99.90
17632;DHT22;8934;51.194;17.150;2022-09-25T17:11:09;15.10;99.90
17632;DHT22;8934;51.194;17.150;2022-09-25T17:13:57;15.00;99.90
17632;DHT22;8934;51.194;17.150;2022-09-25T17:16:46;14.90;99.90
17632;DHT22;8934;51.194;17.150;2022-09-25T17:19:34;14.80;99.90
17632;DHT22;8934;51.194;17.150;2022-09-25T17:22:24;14.80;99.90
17632;DHT22;8934;51.194;17.150;2022-09-25T17:25:33;14.70;99.90
17632;DHT22;8934;51.194;17.150;2022-09-25T17:28:23;14.60;99.90
17632;DHT22;8934;51.194;17.150;2022-09-25T17:31:13;14.60;99.90
17632;DHT22;8934;51.194;17.150;2022-09-25T17:34:08;14.50;99.90
17632;DHT22;8934;51.194;17.150;2022-09-25T17:36:56;14.50;99.90
17632;DHT22;8934;51.194;17.150;2022-09-25T17:39:45;14.40;99.90
17632;DHT22;8934;51.194;17.150;2022-09-25T17:42:33;14.40;99.90
17632;DHT22;8934;51.194;17.150;2022-09-25T17:45:26;14.30;99.90
17632;DHT22;8934;51.194;17.150;2022-09-25T17:48:17;14.30;99.90
17632;DHT22;8934;51.194;17.150;2022-09-25T17:51:12;14.20;99.90
17632;DHT22;8934;51.194;17.150;2022-09-25T17:54:01;14.20;99.90
17632;DHT22;8934;51.194;17.150;2022-09-25T17:56:52;14.10;99.90
17632;DHT22;8934;51.194;17.150;2022-09-25T17:59:41;14.00;99.90
17632;DHT22;8934;51.194;17.150;2022-09-25T18:02:29;13.90;99.90
17632;DHT22;8934;51.194;17.150;2022-09-25T18:05:18;13.80;99.90
17632;DHT22;8934;51.194;17.150;2022-09-25T18:08:08;13.80;99.90
17632;DHT22;8934;51.194;17.150;2022-09-25T18:10:58;13.80;99.90
17632;DHT22;8934;51.194;17.150;2022-09-25T18:13:51;13.70;99.90
17632;DHT22;8934;51.194;17.150;2022-09-25T18:16:40;13.60;99.90
17632;DHT22;8934;51.194;17.150;2022-09-25T18:19:29;13.60;99.90